Reading, Jamaica
Current Conditions -  °F | °C
As of 3:00 PM on Monday 22 Dec 2014 (Local Time) from MKJS Reporting Station
Light Rain Light Rain  
Wind Chill: 28°   Ceiling: 3000
Heat Index: 32°   Visibility: 6mi
Dew Point: 24°   Wind: 13mph
Humidity: 79%   Direction: 80°E
Pressure: 29.88"   Gusts: NA
Location:  18.45°N, 77.95°W
Report Text: MKJS 222000Z 08011KT 9999 -RA FEW022 BKN030 28/24 Q1012
Loading
Personal Weather Stations






























Interactive Weather Map New forecast layout! Learn more

10-Day Weather Forecast

Advertisements
Track Severe Weather on mobile